createdAt,value
2023-01-05T00:02:40.941Z,46.4
2023-01-05T00:07:48.061Z,46.4
2023-01-05T00:12:55.459Z,46.3
2023-01-05T00:18:02.042Z,46.3
2023-01-05T00:23:24.484Z,46.3
2023-01-05T00:28:38.694Z,46.2
2023-01-05T00:34:01.505Z,46.2
2023-01-05T00:38:52.412Z,46.1
2023-01-05T00:43:44.478Z,46.1
2023-01-05T00:48:36.550Z,46.1
2023-01-05T00:53:43.557Z,46
2023-01-05T00:58:35.299Z,46
2023-01-05T01:03:28.202Z,46
2023-01-05T01:08:34.346Z,45.9
2023-01-05T01:13:41.616Z,45.9
2023-01-05T01:18:49.317Z,45.8
2023-01-05T01:24:10.693Z,45.8
2023-01-05T01:29:33.393Z,45.8
2023-01-05T01:34:09.846Z,45.8
2023-01-05T01:39:00.381Z,45.7
2023-01-05T01:44:22.713Z,45.7
2023-01-05T01:49:30.649Z,45.6
2023-01-05T01:54:53.233Z,45.6
2023-01-05T02:00:00.055Z,45.6
2023-01-05T02:05:09.119Z,45.5
2023-01-05T02:10:00.231Z,45.5
2023-01-05T02:14:38.838Z,45.4
2023-01-05T02:19:30.196Z,45.4
2023-01-05T02:24:44.135Z,45.4
2023-01-05T02:29:35.835Z,45.4
2023-01-05T02:34:26.980Z,45.3
2023-01-05T02:39:38.770Z,45.3
2023-01-05T02:43:59.993Z,45.3
2023-01-05T02:48:50.948Z,45.2
2023-01-05T02:53:42.759Z,45.2
2023-01-05T02:58:33.588Z,45.1
2023-01-05T03:03:42.905Z,45.1
2023-01-05T03:08:18.325Z,45.1
2023-01-05T03:12:54.099Z,45.1
2023-01-05T03:17:29.602Z,45
2023-01-05T03:22:36.927Z,44.9
2023-01-05T03:27:43.334Z,44.9
2023-01-05T03:32:35.321Z,44.9
2023-01-05T03:37:42.401Z,44.9
2023-01-05T03:42:37.326Z,44.8
2023-01-05T03:47:27.573Z,44.8
2023-01-05T03:52:19.043Z,44.8
2023-01-05T03:56:55.333Z,44.8
2023-01-05T04:02:02.510Z,44.7
2023-01-05T04:06:58.973Z,44.7
2023-01-05T04:11:50.371Z,44.6
2023-01-05T04:16:42.522Z,44.6
2023-01-05T04:21:49.477Z,44.6
2023-01-05T04:27:00.985Z,44.6
2023-01-05T04:32:08.447Z,44.5
2023-01-05T04:37:15.529Z,44.4
2023-01-05T04:42:22.616Z,44.4
2023-01-05T04:47:30.612Z,44.4
2023-01-05T04:52:37.461Z,44.4
2023-01-05T04:57:29.271Z,44.3
2023-01-05T05:02:26.849Z,44.3
2023-01-05T05:07:19.381Z,44.2
2023-01-05T05:11:55.808Z,44.1
2023-01-05T05:17:02.922Z,44.1
2023-01-05T05:21:39.529Z,44.1
2023-01-05T05:26:15.937Z,44.1
2023-01-05T05:31:08.038Z,44
2023-01-05T05:36:15.062Z,44
2023-01-05T05:41:09.096Z,43.9
2023-01-05T05:50:58.035Z,43.9
2023-01-05T05:55:48.861Z,43.9
2023-01-05T06:01:04.075Z,43.8
2023-01-05T06:06:12.407Z,43.8
2023-01-05T06:11:35.173Z,43.7
2023-01-05T06:16:43.472Z,43.6
2023-01-05T06:21:52.614Z,43.6
2023-01-05T06:27:15.058Z,43.6
2023-01-05T06:32:38.108Z,43.5
2023-01-05T06:38:06.270Z,43.5
2023-01-05T06:43:29.773Z,43.4
2023-01-05T06:48:52.722Z,43.4
2023-01-05T06:54:18.142Z,43.4
2023-01-05T06:59:41.181Z,43.3
2023-01-05T07:05:04.574Z,43.3
2023-01-05T07:10:31.587Z,43.1
2023-01-05T07:16:00.397Z,43
2023-01-05T07:21:23.873Z,42.9
2023-01-05T07:26:46.737Z,42.6
2023-01-05T07:32:15.221Z,42.5
2023-01-05T07:37:47.006Z,42.4
2023-01-05T07:43:09.266Z,42.4
2023-01-05T07:48:21.915Z,42.4
2023-01-05T07:53:31.429Z,42.4
2023-01-05T07:58:54.329Z,42.3
2023-01-05T08:04:18.370Z,42.3
2023-01-05T08:09:30.630Z,42.2
2023-01-05T08:14:53.065Z,42.2
2023-01-05T08:20:20.693Z,42.1
2023-01-05T08:25:45.787Z,42.1
2023-01-05T08:31:09.980Z,42
2023-01-05T08:36:18.863Z,42
2023-01-05T08:41:41.865Z,41.9
2023-01-05T08:47:09.176Z,41.9
2023-01-05T08:52:34.913Z,41.9
2023-01-05T08:58:02.304Z,41.8
2023-01-05T09:03:32.215Z,41.8
2023-01-05T09:08:54.732Z,41.8
2023-01-05T09:14:18.101Z,41.7
2023-01-05T09:20:10.757Z,41.6
2023-01-05T09:25:18.059Z,41.6
2023-01-05T09:30:25.672Z,41.6
2023-01-05T09:35:56.241Z,41.2
2023-01-05T09:41:21.952Z,41.1
2023-01-05T09:46:46.640Z,41.6
2023-01-05T09:52:10.328Z,42.1
2023-01-05T09:58:13.408Z,42.5
2023-01-05T10:04:18.485Z,43
2023-01-05T10:09:42.202Z,43.6
2023-01-05T10:15:05.084Z,44
2023-01-05T10:21:07.758Z,44.4
2023-01-05T10:26:58.586Z,44.8
2023-01-05T10:32:49.917Z,45.2
2023-01-05T10:40:00.106Z,45.6
2023-01-05T10:45:23.582Z,46.1
2023-01-05T10:51:12.466Z,46.7
2023-01-05T10:56:41.164Z,47.2
2023-01-05T11:02:10.511Z,47.7
2023-01-05T11:08:18.203Z,48.3
2023-01-05T11:13:42.505Z,48.8
2023-01-05T11:19:10.484Z,49.2
2023-01-05T11:24:36.640Z,49.5
2023-01-05T11:29:50.962Z,49.9
2023-01-05T11:35:05.236Z,50.3
2023-01-05T11:40:33.852Z,50.4
2023-01-05T11:46:01.023Z,50.7
2023-01-05T11:51:32.946Z,50.8
2023-01-05T11:56:24.897Z,50.7
2023-01-05T12:01:49.481Z,50.7
2023-01-05T12:06:58.394Z,51.2
2023-01-05T12:12:10.547Z,51.4
2023-01-05T12:17:42.219Z,51.4
2023-01-05T12:22:52.548Z,51.4
2023-01-05T12:28:04.959Z,51.4
2023-01-05T12:37:29.313Z,51.3
2023-01-05T12:42:42.539Z,51.3
2023-01-05T12:48:07.777Z,51.3
2023-01-05T12:53:16.100Z,51.3
2023-01-05T12:58:08.274Z,51.3
2023-01-05T13:03:31.850Z,51.2
2023-01-05T13:08:37.397Z,51.2
2023-01-05T13:13:32.619Z,51.2
2023-01-05T13:18:44.780Z,51.1
2023-01-05T13:23:36.241Z,51.1
2023-01-05T13:29:03.957Z,51.1
2023-01-05T13:34:12.986Z,51.1
2023-01-05T13:39:35.278Z,51
2023-01-05T13:44:59.266Z,51
2023-01-05T13:50:45.072Z,50.9
2023-01-05T13:56:17.870Z,50.9
2023-01-05T14:02:10.616Z,50.9
2023-01-05T14:07:34.342Z,50.8
2023-01-05T14:12:56.887Z,50.8
2023-01-05T14:18:05.411Z,50.8
2023-01-05T14:23:31.528Z,50.8
2023-01-05T14:28:41.307Z,50.7
2023-01-05T14:34:05.248Z,50.7
2023-01-05T14:39:12.935Z,50.6
2023-01-05T14:44:26.033Z,50.6
2023-01-05T14:49:34.111Z,50.6
2023-01-05T14:55:04.780Z,50.6
2023-01-05T15:00:45.777Z,50.5
2023-01-05T15:06:13.842Z,50.5
2023-01-05T15:11:37.064Z,50.4
2023-01-05T15:17:06.199Z,50.4
2023-01-05T15:22:37.871Z,50.4
2023-01-05T15:27:56.229Z,50.3
2023-01-05T15:33:03.417Z,50.3
2023-01-05T15:38:12.075Z,50.3
2023-01-05T15:43:20.415Z,50.3
2023-01-05T15:48:27.623Z,50.2
2023-01-05T15:53:20.526Z,50.2
2023-01-05T15:58:43.725Z,50.1
2023-01-05T16:03:51.148Z,50.1
2023-01-05T16:09:00.686Z,50.1
2023-01-05T16:14:09.051Z,50.1
2023-01-05T16:19:29.845Z,50
2023-01-05T16:24:57.321Z,50
2023-01-05T16:30:05.434Z,49.9
2023-01-05T16:35:28.681Z,49.9
2023-01-05T16:40:37.503Z,49.9
2023-01-05T16:45:29.702Z,49.9
2023-01-05T16:50:47.578Z,49.8
2023-01-05T16:56:17.617Z,49.8
2023-01-05T17:01:25.573Z,49.8
2023-01-05T17:06:32.525Z,49.8
2023-01-05T17:11:40.034Z,49.7
2023-01-05T17:16:48.621Z,49.6
2023-01-05T17:21:57.107Z,49.6
2023-01-05T17:27:21.204Z,49.6
2023-01-05T17:32:13.854Z,49.5
2023-01-05T17:37:22.246Z,49.5
2023-01-05T17:47:08.121Z,49.4
2023-01-05T17:52:00.576Z,49.4
2023-01-05T17:57:27.103Z,49.3
2023-01-05T18:02:51.685Z,49.3
2023-01-05T18:08:15.884Z,49.3
2023-01-05T18:13:40.449Z,49.3
2023-01-05T18:19:04.638Z,49.2
2023-01-05T18:24:27.739Z,49.1
2023-01-05T18:29:51.269Z,49.1
2023-01-05T18:35:16.047Z,49.1
2023-01-05T18:40:49.077Z,49
2023-01-05T18:46:30.479Z,49
2023-01-05T18:51:40.168Z,48.9
2023-01-05T18:57:04.625Z,48.9
2023-01-05T19:02:13.163Z,48.9
2023-01-05T19:07:40.000Z,48.8
2023-01-05T19:13:02.634Z,48.8
2023-01-05T19:18:26.452Z,48.8
2023-01-05T19:23:35.256Z,48.7
2023-01-05T19:28:44.300Z,48.7
2023-01-05T19:34:07.982Z,48.6
2023-01-05T19:39:32.597Z,48.6
2023-01-05T19:44:57.149Z,48.6
2023-01-05T19:50:23.725Z,48.6
2023-01-05T19:55:32.389Z,48.5
2023-01-05T20:00:57.283Z,48.5
2023-01-05T20:06:05.744Z,48.4
2023-01-05T20:11:15.308Z,48.4
2023-01-05T20:16:48.269Z,48.4
2023-01-05T20:21:39.277Z,48.3
2023-01-05T20:26:49.318Z,48.3
2023-01-05T20:31:57.425Z,48.3
2023-01-05T20:37:20.155Z,48.3
2023-01-05T20:42:45.536Z,48.2
2023-01-05T20:48:20.743Z,48.2
2023-01-05T20:53:44.021Z,48.1
2023-01-05T20:59:07.547Z,48.1
2023-01-05T21:04:59.406Z,48.1
2023-01-05T21:09:53.954Z,48
2023-01-05T21:15:35.567Z,48
2023-01-05T21:20:43.331Z,47.9
2023-01-05T21:26:40.323Z,47.9
2023-01-05T21:31:48.738Z,47.9
2023-01-05T21:36:56.183Z,47.9
2023-01-05T21:42:45.472Z,47.8
2023-01-05T21:47:55.378Z,47.8
2023-01-05T21:53:02.449Z,47.8
2023-01-05T21:58:09.907Z,47.7
2023-01-05T22:03:18.423Z,47.7
2023-01-05T22:08:26.398Z,47.6
2023-01-05T22:13:34.392Z,47.6
2023-01-05T22:18:58.636Z,47.6
2023-01-05T22:24:21.300Z,47.5
2023-01-05T22:29:28.834Z,47.5
2023-01-05T22:34:38.579Z,47.4
2023-01-05T22:39:45.909Z,47.4
2023-01-05T22:44:37.319Z,47.4
2023-01-05T22:49:45.273Z,47.4
2023-01-05T22:55:08.336Z,47.3
2023-01-05T23:00:17.182Z,47.3
2023-01-05T23:05:25.859Z,47.3
2023-01-05T23:09:45.968Z,47.3
2023-01-05T23:14:53.045Z,47.2
2023-01-05T23:20:15.786Z,47.2
2023-01-05T23:25:23.996Z,47.1
2023-01-05T23:30:32.897Z,47.1
2023-01-05T23:35:40.493Z,47.1
2023-01-05T23:41:03.925Z,47.1
2023-01-05T23:46:11.391Z,47
2023-01-05T23:51:03.250Z,47
2023-01-05T23:56:27.914Z,46.9
